createdAt,value
2022-09-10T00:00:46.000Z,4.26
2022-09-10T00:05:41.000Z,4.27
2022-09-10T00:10:36.000Z,4.26
2022-09-10T00:15:30.000Z,4.26
2022-09-10T00:20:24.000Z,4.26
2022-09-10T00:25:19.000Z,4.26
2022-09-10T00:30:13.000Z,4.26
2022-09-10T00:35:06.000Z,4.26
2022-09-10T00:40:01.000Z,4.26
2022-09-10T00:44:54.000Z,4.26
2022-09-10T00:49:49.000Z,4.26
2022-09-10T00:54:44.000Z,4.26
2022-09-10T00:59:38.000Z,4.26
2022-09-10T01:04:33.000Z,4.25
2022-09-10T01:09:28.000Z,4.25
2022-09-10T01:14:23.000Z,4.25
2022-09-10T01:19:16.000Z,4.25
2022-09-10T01:24:11.000Z,4.25
2022-09-10T01:29:05.000Z,4.25
2022-09-10T01:34:00.000Z,4.25
2022-09-10T01:38:55.000Z,4.24
2022-09-10T01:43:49.000Z,4.25
2022-09-10T01:48:43.000Z,4.24
2022-09-10T01:53:36.000Z,4.24
2022-09-10T01:58:31.000Z,4.24
2022-09-10T02:03:26.000Z,4.24
2022-09-10T02:08:20.000Z,4.24
2022-09-10T02:13:14.000Z,4.24
2022-09-10T02:18:09.000Z,4.24
2022-09-10T02:23:04.000Z,4.24
2022-09-10T02:27:59.000Z,4.24
2022-09-10T02:32:54.000Z,4.24
2022-09-10T02:37:48.000Z,4.24
2022-09-10T02:42:43.000Z,4.24
2022-09-10T02:47:37.000Z,4.24
2022-09-10T02:52:32.000Z,4.24
2022-09-10T02:57:27.000Z,4.24
2022-09-10T03:02:19.000Z,4.24
2022-09-10T03:07:13.000Z,4.23
2022-09-10T03:12:08.000Z,4.23
2022-09-10T03:17:03.000Z,4.23
2022-09-10T03:21:58.000Z,4.23
2022-09-10T03:26:52.000Z,4.23
2022-09-10T03:31:47.000Z,4.23
2022-09-10T03:36:41.000Z,4.23
2022-09-10T03:41:36.000Z,4.23
2022-09-10T03:46:30.000Z,4.23
2022-09-10T03:51:28.000Z,4.23
2022-09-10T03:56:19.000Z,4.23
2022-09-10T04:01:14.000Z,4.23
2022-09-10T04:06:08.000Z,4.23
2022-09-10T04:11:03.000Z,4.23
2022-09-10T04:15:58.000Z,4.23
2022-09-10T04:20:52.000Z,4.22
2022-09-10T04:25:46.000Z,4.23
2022-09-10T04:30:39.000Z,4.23
2022-09-10T04:35:34.000Z,4.22
2022-09-10T04:40:29.000Z,4.22
2022-09-10T04:45:23.000Z,4.22
2022-09-10T04:50:18.000Z,4.22
2022-09-10T04:55:12.000Z,4.22
2022-09-10T05:00:07.000Z,4.22
2022-09-10T05:05:05.000Z,4.22
2022-09-10T05:09:55.000Z,4.22
2022-09-10T05:14:49.000Z,4.22
2022-09-10T05:19:43.000Z,4.22
2022-09-10T05:24:38.000Z,4.22
2022-09-10T05:29:33.000Z,4.22
2022-09-10T05:34:27.000Z,4.22
2022-09-10T05:39:21.000Z,4.21
2022-09-10T05:44:16.000Z,4.22
2022-09-10T05:49:10.000Z,4.21
2022-09-10T05:54:05.000Z,4.22
2022-09-10T05:59:00.000Z,4.21
2022-09-10T06:03:54.000Z,4.21
2022-09-10T06:08:49.000Z,4.21
2022-09-10T06:13:44.000Z,4.21
2022-09-10T06:18:37.000Z,4.21
2022-09-10T06:23:32.000Z,4.21
2022-09-10T06:28:26.000Z,4.21
2022-09-10T06:33:21.000Z,4.21
2022-09-10T06:38:15.000Z,4.21
2022-09-10T06:43:09.000Z,4.20
2022-09-10T06:48:04.000Z,4.21
2022-09-10T06:53:01.000Z,4.21
2022-09-10T06:57:53.000Z,4.20
2022-09-10T07:02:46.000Z,4.20
2022-09-10T07:07:39.000Z,4.20
2022-09-10T07:12:34.000Z,4.20
2022-09-10T07:17:28.000Z,4.20
2022-09-10T07:22:23.000Z,4.20
2022-09-10T07:27:17.000Z,4.20
2022-09-10T07:32:12.000Z,4.20
2022-09-10T07:37:06.000Z,4.20
2022-09-10T07:42:01.000Z,4.20
2022-09-10T07:46:55.000Z,4.20
2022-09-10T07:51:50.000Z,4.20
2022-09-10T07:56:44.000Z,4.20
2022-09-10T08:01:38.000Z,4.20
2022-09-10T08:06:33.000Z,4.20
2022-09-10T08:11:28.000Z,4.20
2022-09-10T08:16:23.000Z,4.20
2022-09-10T08:21:19.000Z,4.20
2022-09-10T08:26:14.000Z,4.20
2022-09-10T08:31:08.000Z,4.20
2022-09-10T08:36:03.000Z,4.20
2022-09-10T08:40:57.000Z,4.20
2022-09-10T08:45:52.000Z,4.20
2022-09-10T08:50:47.000Z,4.20
2022-09-10T08:55:41.000Z,4.20
2022-09-10T09:00:37.000Z,4.19
2022-09-10T09:05:31.000Z,4.21
2022-09-10T09:10:26.000Z,4.22
2022-09-10T09:15:24.000Z,4.22
2022-09-10T09:20:15.000Z,4.22
2022-09-10T09:25:10.000Z,4.22
2022-09-10T09:30:05.000Z,4.22
2022-09-10T09:35:00.000Z,4.24
2022-09-10T09:39:55.000Z,4.22
2022-09-10T09:44:50.000Z,4.22
2022-09-10T09:49:44.000Z,4.25
2022-09-10T09:54:40.000Z,4.25
2022-09-10T09:59:36.000Z,4.24
2022-09-10T10:04:31.000Z,4.24
2022-09-10T10:09:26.000Z,4.24
2022-09-10T10:14:20.000Z,4.24
2022-09-10T10:19:14.000Z,4.23
2022-09-10T10:24:08.000Z,4.23
2022-09-10T10:29:01.000Z,4.23
2022-09-10T10:33:56.000Z,4.23
2022-09-10T10:38:50.000Z,4.22
2022-09-10T10:43:44.000Z,4.23
2022-09-10T10:48:39.000Z,4.22
2022-09-10T10:53:33.000Z,4.22
2022-09-10T10:58:28.000Z,4.23
2022-09-10T11:03:23.000Z,4.24
2022-09-10T11:08:17.000Z,4.24
2022-09-10T11:13:12.000Z,4.24
2022-09-10T11:18:07.000Z,4.25
2022-09-10T11:23:02.000Z,4.24
2022-09-10T11:27:57.000Z,4.24
2022-09-10T11:32:52.000Z,4.25
2022-09-10T11:37:47.000Z,4.25
2022-09-10T11:42:42.000Z,4.24
2022-09-10T11:47:36.000Z,4.23
2022-09-10T11:52:30.000Z,4.23
2022-09-10T11:57:24.000Z,4.23
2022-09-10T12:02:18.000Z,4.23
2022-09-10T12:07:13.000Z,4.24
2022-09-10T12:12:08.000Z,4.23
2022-09-10T12:17:03.000Z,4.23
2022-09-10T12:21:57.000Z,4.23
2022-09-10T12:26:52.000Z,4.23
2022-09-10T12:31:46.000Z,4.23
2022-09-10T12:36:41.000Z,4.25
2022-09-10T12:41:37.000Z,4.26
2022-09-10T12:46:32.000Z,4.25
2022-09-10T12:51:28.000Z,4.24
2022-09-10T12:56:22.000Z,4.24
2022-09-10T13:01:16.000Z,4.23
2022-09-10T13:06:10.000Z,4.23
2022-09-10T13:11:04.000Z,4.23
2022-09-10T13:15:58.000Z,4.23
2022-09-10T13:20:52.000Z,4.23
2022-09-10T13:25:47.000Z,4.22
2022-09-10T13:30:41.000Z,4.23
2022-09-10T13:35:36.000Z,4.24
2022-09-10T13:40:31.000Z,4.26
2022-09-10T13:45:27.000Z,4.25
2022-09-10T13:50:22.000Z,4.24
2022-09-10T13:55:17.000Z,4.24
2022-09-10T14:00:11.000Z,4.24
2022-09-10T14:05:05.000Z,4.24
2022-09-10T14:10:00.000Z,4.23
2022-09-10T14:14:54.000Z,4.23
2022-09-10T14:19:48.000Z,4.24
2022-09-10T14:24:42.000Z,4.23
2022-09-10T14:29:37.000Z,4.24
2022-09-10T14:34:32.000Z,4.23
2022-09-10T14:39:26.000Z,4.23
2022-09-10T14:44:20.000Z,4.23
2022-09-10T14:49:14.000Z,4.22
2022-09-10T14:54:09.000Z,4.22
2022-09-10T14:59:04.000Z,4.22
2022-09-10T15:03:58.000Z,4.22
2022-09-10T15:08:53.000Z,4.22
2022-09-10T15:13:47.000Z,4.22
2022-09-10T15:18:41.000Z,4.22
2022-09-10T15:23:36.000Z,4.22
2022-09-10T15:28:30.000Z,4.23
2022-09-10T15:33:25.000Z,4.22
2022-09-10T15:38:20.000Z,4.22
2022-09-10T15:43:15.000Z,4.22
2022-09-10T15:48:10.000Z,4.22
2022-09-10T15:53:04.000Z,4.22
2022-09-10T15:57:59.000Z,4.22
2022-09-10T16:02:54.000Z,4.22
2022-09-10T16:07:49.000Z,4.22
2022-09-10T16:12:43.000Z,4.22
2022-09-10T16:17:38.000Z,4.23
2022-09-10T16:22:33.000Z,4.22
2022-09-10T16:27:28.000Z,4.22
2022-09-10T16:32:22.000Z,4.22
2022-09-10T16:37:16.000Z,4.21
2022-09-10T16:42:09.000Z,4.21
2022-09-10T16:47:04.000Z,4.20
2022-09-10T16:51:59.000Z,4.20
2022-09-10T16:56:53.000Z,4.20
2022-09-10T17:01:48.000Z,4.20
2022-09-10T17:06:42.000Z,4.20
2022-09-10T17:11:37.000Z,4.20
2022-09-10T17:16:32.000Z,4.20
2022-09-10T17:21:26.000Z,4.20
2022-09-10T17:26:21.000Z,4.20
2022-09-10T17:31:15.000Z,4.19
2022-09-10T17:36:10.000Z,4.19
2022-09-10T17:41:05.000Z,4.19
2022-09-10T17:46:00.000Z,4.19
2022-09-10T17:50:55.000Z,4.19
2022-09-10T17:55:49.000Z,4.19
2022-09-10T18:00:44.000Z,4.19
2022-09-10T18:05:39.000Z,4.19
2022-09-10T18:10:34.000Z,4.19
2022-09-10T18:15:29.000Z,4.19
2022-09-10T18:20:23.000Z,4.19
2022-09-10T18:25:17.000Z,4.19
2022-09-10T18:30:12.000Z,4.19
2022-09-10T18:35:06.000Z,4.18
2022-09-10T18:40:01.000Z,4.18
2022-09-10T18:44:56.000Z,4.18
2022-09-10T18:49:49.000Z,4.18
2022-09-10T18:54:44.000Z,4.18
2022-09-10T18:59:38.000Z,4.18
2022-09-10T19:04:33.000Z,4.18
2022-09-10T19:09:28.000Z,4.18
2022-09-10T19:14:21.000Z,4.18
2022-09-10T19:19:16.000Z,4.18
2022-09-10T19:24:09.000Z,4.18
2022-09-10T19:29:04.000Z,4.18
2022-09-10T19:33:59.000Z,4.18
2022-09-10T19:38:53.000Z,4.18
2022-09-10T19:43:47.000Z,4.17
2022-09-10T19:48:42.000Z,4.17
2022-09-10T19:53:36.000Z,4.17
2022-09-10T19:58:31.000Z,4.17
2022-09-10T20:03:25.000Z,4.17
2022-09-10T20:08:20.000Z,4.17
2022-09-10T20:13:15.000Z,4.17
2022-09-10T20:18:09.000Z,4.17
2022-09-10T20:23:03.000Z,4.17
2022-09-10T20:27:58.000Z,4.17
2022-09-10T20:32:53.000Z,4.17
2022-09-10T20:37:48.000Z,4.17
2022-09-10T20:42:42.000Z,4.16
2022-09-10T20:47:37.000Z,4.16
2022-09-10T20:52:32.000Z,4.17
2022-09-10T20:57:27.000Z,4.17
2022-09-10T21:02:21.000Z,4.16
2022-09-10T21:07:16.000Z,4.16
2022-09-10T21:12:10.000Z,4.16
2022-09-10T21:17:05.000Z,4.16
2022-09-10T21:22:00.000Z,4.16
2022-09-10T21:26:55.000Z,4.16
2022-09-10T21:31:52.000Z,4.16
2022-09-10T21:36:44.000Z,4.16
2022-09-10T21:41:39.000Z,4.15
2022-09-10T21:46:34.000Z,4.16
2022-09-10T21:51:29.000Z,4.15
2022-09-10T21:56:23.000Z,4.16
2022-09-10T22:01:18.000Z,4.15
2022-09-10T22:06:13.000Z,4.15
2022-09-10T22:11:08.000Z,4.16
2022-09-10T22:16:03.000Z,4.16
2022-09-10T22:20:57.000Z,4.15
2022-09-10T22:25:51.000Z,4.15
2022-09-10T22:30:46.000Z,4.15
2022-09-10T22:35:41.000Z,4.15
2022-09-10T22:40:36.000Z,4.15
2022-09-10T22:45:30.000Z,4.15
2022-09-10T22:50:25.000Z,4.15
2022-09-10T22:55:20.000Z,4.15
2022-09-10T23:00:13.000Z,4.15
2022-09-10T23:05:08.000Z,4.15
2022-09-10T23:10:02.000Z,4.15
2022-09-10T23:14:57.000Z,4.15
2022-09-10T23:19:51.000Z,4.15
2022-09-10T23:24:45.000Z,4.15
2022-09-10T23:29:40.000Z,4.15
2022-09-10T23:34:35.000Z,4.15
2022-09-10T23:39:30.000Z,4.15
2022-09-10T23:44:24.000Z,4.15
2022-09-10T23:49:22.000Z,4.15
2022-09-10T23:54:12.000Z,4.15
2022-09-10T23:59:10.000Z,4.14
